sensor_id;sensor_type;location;lat;lon;timestamp;temperature;humidity
66710;DHT22;53624;0.000;0.000;2023-07-24T00:00:30;25.90;93.20
66710;DHT22;53624;0.000;0.000;2023-07-24T00:03:01;25.90;93.20
66710;DHT22;53624;0.000;0.000;2023-07-24T00:05:29;25.90;93.20
66710;DHT22;53624;0.000;0.000;2023-07-24T00:07:56;25.80;93.30
66710;DHT22;53624;0.000;0.000;2023-07-24T00:10:23;25.80;93.30
66710;DHT22;53624;0.000;0.000;2023-07-24T00:12:51;25.80;93.40
66710;DHT22;53624;0.000;0.000;2023-07-24T00:15:18;25.80;93.40
66710;DHT22;53624;0.000;0.000;2023-07-24T00:17:46;25.80;93.40
66710;DHT22;53624;0.000;0.000;2023-07-24T00:20:15;25.80;93.40
66710;DHT22;53624;0.000;0.000;2023-07-24T00:22:42;25.80;93.40
66710;DHT22;53624;0.000;0.000;2023-07-24T00:25:09;25.70;93.40
66710;DHT22;53624;0.000;0.000;2023-07-24T00:27:37;25.70;93.40
66710;DHT22;53624;0.000;0.000;2023-07-24T00:30:06;25.70;93.50
66710;DHT22;53624;0.000;0.000;2023-07-24T00:32:33;25.70;93.50
66710;DHT22;53624;0.000;0.000;2023-07-24T00:35:01;25.70;93.50
66710;DHT22;53624;0.000;0.000;2023-07-24T00:37:30;25.70;93.50
66710;DHT22;53624;0.000;0.000;2023-07-24T00:39:58;25.70;93.50
66710;DHT22;53624;0.000;0.000;2023-07-24T00:42:25;25.70;93.60
66710;DHT22;53624;0.000;0.000;2023-07-24T00:44:53;25.70;93.60
66710;DHT22;53624;0.000;0.000;2023-07-24T00:47:20;25.70;93.60
66710;DHT22;53624;0.000;0.000;2023-07-24T00:49:48;25.70;93.60
66710;DHT22;53624;0.000;0.000;2023-07-24T00:52:16;25.70;93.60
66710;DHT22;53624;0.000;0.000;2023-07-24T00:54:46;25.70;93.70
66710;DHT22;53624;0.000;0.000;2023-07-24T00:57:13;25.70;93.70
66710;DHT22;53624;0.000;0.000;2023-07-24T00:59:41;25.70;93.70
66710;DHT22;53624;0.000;0.000;2023-07-24T01:02:09;25.70;93.70
66710;DHT22;53624;0.000;0.000;2023-07-24T01:04:39;25.60;93.80
66710;DHT22;53624;0.000;0.000;2023-07-24T01:07:06;25.60;93.80
66710;DHT22;53624;0.000;0.000;2023-07-24T01:09:34;25.60;93.80
66710;DHT22;53624;0.000;0.000;2023-07-24T01:12:04;25.60;93.80
66710;DHT22;53624;0.000;0.000;2023-07-24T01:14:36;25.60;93.90
66710;DHT22;53624;0.000;0.000;2023-07-24T01:17:07;25.60;93.90
66710;DHT22;53624;0.000;0.000;2023-07-24T01:19:35;25.60;93.90
66710;DHT22;53624;0.000;0.000;2023-07-24T01:22:08;25.60;93.90
66710;DHT22;53624;0.000;0.000;2023-07-24T01:24:41;25.60;94.00
66710;DHT22;53624;0.000;0.000;2023-07-24T01:27:19;25.50;93.90
66710;DHT22;53624;0.000;0.000;2023-07-24T01:29:47;25.50;94.00
66710;DHT22;53624;0.000;0.000;2023-07-24T01:32:14;25.50;94.30
66710;DHT22;53624;0.000;0.000;2023-07-24T01:34:42;25.50;94.10
66710;DHT22;53624;0.000;0.000;2023-07-24T01:37:09;25.50;94.00
66710;DHT22;53624;0.000;0.000;2023-07-24T01:39:37;25.50;94.00
66710;DHT22;53624;0.000;0.000;2023-07-24T01:42:05;25.50;94.00
66710;DHT22;53624;0.000;0.000;2023-07-24T01:44:34;25.50;94.10
66710;DHT22;53624;0.000;0.000;2023-07-24T01:47:02;25.50;94.20
66710;DHT22;53624;0.000;0.000;2023-07-24T01:49:29;25.50;94.20
66710;DHT22;53624;0.000;0.000;2023-07-24T01:51:57;25.50;94.30
66710;DHT22;53624;0.000;0.000;2023-07-24T01:54:25;25.50;94.40
66710;DHT22;53624;0.000;0.000;2023-07-24T01:56:52;25.40;94.50
66710;DHT22;53624;0.000;0.000;2023-07-24T01:59:20;25.40;94.60
66710;DHT22;53624;0.000;0.000;2023-07-24T02:01:48;25.30;94.70
66710;DHT22;53624;0.000;0.000;2023-07-24T02:04:16;25.30;94.90
66710;DHT22;53624;0.000;0.000;2023-07-24T02:06:43;25.40;95.40
66710;DHT22;53624;0.000;0.000;2023-07-24T02:09:11;25.30;95.60
66710;DHT22;53624;0.000;0.000;2023-07-24T02:11:38;25.30;95.60
66710;DHT22;53624;0.000;0.000;2023-07-24T02:14:06;25.30;95.60
66710;DHT22;53624;0.000;0.000;2023-07-24T02:16:33;25.30;95.60
66710;DHT22;53624;0.000;0.000;2023-07-24T02:19:02;25.30;95.60
66710;DHT22;53624;0.000;0.000;2023-07-24T02:21:30;25.30;95.70
66710;DHT22;53624;0.000;0.000;2023-07-24T02:23:58;25.20;95.70
66710;DHT22;53624;0.000;0.000;2023-07-24T02:26:25;25.20;95.80
66710;DHT22;53624;0.000;0.000;2023-07-24T02:28:54;25.20;95.90
66710;DHT22;53624;0.000;0.000;2023-07-24T02:31:21;25.20;95.90
66710;DHT22;53624;0.000;0.000;2023-07-24T02:33:49;25.20;95.90
66710;DHT22;53624;0.000;0.000;2023-07-24T02:36:18;25.20;96.00
66710;DHT22;53624;0.000;0.000;2023-07-24T02:38:45;25.20;96.10
66710;DHT22;53624;0.000;0.000;2023-07-24T02:41:13;25.20;96.10
66710;DHT22;53624;0.000;0.000;2023-07-24T02:43:40;25.20;96.50
66710;DHT22;53624;0.000;0.000;2023-07-24T02:46:07;25.20;96.50
66710;DHT22;53624;0.000;0.000;2023-07-24T02:48:35;25.20;96.50
66710;DHT22;53624;0.000;0.000;2023-07-24T02:51:03;25.20;96.70
66710;DHT22;53624;0.000;0.000;2023-07-24T02:53:32;25.10;97.00
66710;DHT22;53624;0.000;0.000;2023-07-24T02:56:00;25.10;96.80
66710;DHT22;53624;0.000;0.000;2023-07-24T02:58:28;25.10;96.80
66710;DHT22;53624;0.000;0.000;2023-07-24T03:01:01;25.10;96.80
66710;DHT22;53624;0.000;0.000;2023-07-24T03:03:29;25.10;97.00
66710;DHT22;53624;0.000;0.000;2023-07-24T03:05:56;25.10;97.00
66710;DHT22;53624;0.000;0.000;2023-07-24T03:08:24;25.10;97.10
66710;DHT22;53624;0.000;0.000;2023-07-24T03:10:53;25.00;97.10
66710;DHT22;53624;0.000;0.000;2023-07-24T03:13:20;25.00;97.20
66710;DHT22;53624;0.000;0.000;2023-07-24T03:15:51;25.00;97.20
66710;DHT22;53624;0.000;0.000;2023-07-24T03:18:18;25.00;97.70
66710;DHT22;53624;0.000;0.000;2023-07-24T03:20:46;25.00;97.30
66710;DHT22;53624;0.000;0.000;2023-07-24T03:23:13;25.00;97.50
66710;DHT22;53624;0.000;0.000;2023-07-24T03:25:41;25.00;97.50
66710;DHT22;53624;0.000;0.000;2023-07-24T03:28:10;25.00;97.40
66710;DHT22;53624;0.000;0.000;2023-07-24T03:30:37;25.00;97.50
66710;DHT22;53624;0.000;0.000;2023-07-24T03:33:05;25.00;97.50
66710;DHT22;53624;0.000;0.000;2023-07-24T03:35:33;25.00;97.60
66710;DHT22;53624;0.000;0.000;2023-07-24T03:38:01;24.90;97.70
66710;DHT22;53624;0.000;0.000;2023-07-24T03:40:28;24.90;97.90
66710;DHT22;53624;0.000;0.000;2023-07-24T03:42:56;24.90;97.80
66710;DHT22;53624;0.000;0.000;2023-07-24T03:45:25;24.90;97.90
66710;DHT22;53624;0.000;0.000;2023-07-24T03:47:53;24.90;97.90
66710;DHT22;53624;0.000;0.000;2023-07-24T03:50:20;24.90;98.00
66710;DHT22;53624;0.000;0.000;2023-07-24T03:52:48;24.90;98.10
66710;DHT22;53624;0.000;0.000;2023-07-24T03:55:15;24.90;98.10
66710;DHT22;53624;0.000;0.000;2023-07-24T03:57:42;24.80;98.10
66710;DHT22;53624;0.000;0.000;2023-07-24T04:00:10;24.80;98.20
66710;DHT22;53624;0.000;0.000;2023-07-24T04:02:39;24.80;98.20
66710;DHT22;53624;0.000;0.000;2023-07-24T04:05:07;24.80;98.20
66710;DHT22;53624;0.000;0.000;2023-07-24T04:07:37;24.80;98.30
66710;DHT22;53624;0.000;0.000;2023-07-24T04:10:05;24.80;98.40
66710;DHT22;53624;0.000;0.000;2023-07-24T04:12:33;24.80;98.40
66710;DHT22;53624;0.000;0.000;2023-07-24T04:15:00;24.80;98.60
66710;DHT22;53624;0.000;0.000;2023-07-24T04:17:28;24.80;98.60
66710;DHT22;53624;0.000;0.000;2023-07-24T04:19:56;24.80;98.60
66710;DHT22;53624;0.000;0.000;2023-07-24T04:22:24;24.80;98.70
66710;DHT22;53624;0.000;0.000;2023-07-24T04:24:52;24.80;98.90
66710;DHT22;53624;0.000;0.000;2023-07-24T04:27:19;24.80;98.90
66710;DHT22;53624;0.000;0.000;2023-07-24T04:29:47;24.70;98.90
66710;DHT22;53624;0.000;0.000;2023-07-24T04:32:15;24.70;99.00
66710;DHT22;53624;0.000;0.000;2023-07-24T04:34:44;24.70;99.10
66710;DHT22;53624;0.000;0.000;2023-07-24T04:37:14;24.70;99.10
66710;DHT22;53624;0.000;0.000;2023-07-24T04:39:41;24.70;99.20
66710;DHT22;53624;0.000;0.000;2023-07-24T04:42:08;24.70;99.30
66710;DHT22;53624;0.000;0.000;2023-07-24T04:44:36;24.70;99.40
66710;DHT22;53624;0.000;0.000;2023-07-24T04:47:03;24.70;99.40
66710;DHT22;53624;0.000;0.000;2023-07-24T04:49:31;24.70;99.60
66710;DHT22;53624;0.000;0.000;2023-07-24T04:51:58;24.70;99.60
66710;DHT22;53624;0.000;0.000;2023-07-24T04:54:28;24.70;99.70
66710;DHT22;53624;0.000;0.000;2023-07-24T04:56:56;24.70;99.70
66710;DHT22;53624;0.000;0.000;2023-07-24T04:59:24;24.60;99.80
66710;DHT22;53624;0.000;0.000;2023-07-24T05:01:51;24.60;99.90
66710;DHT22;53624;0.000;0.000;2023-07-24T05:04:19;24.60;99.90
66710;DHT22;53624;0.000;0.000;2023-07-24T05:06:47;24.60;98.90
66710;DHT22;53624;0.000;0.000;2023-07-24T05:09:15;24.50;98.80
66710;DHT22;53624;0.000;0.000;2023-07-24T05:11:44;24.40;98.70
66710;DHT22;53624;0.000;0.000;2023-07-24T05:14:11;24.30;99.30
66710;DHT22;53624;0.000;0.000;2023-07-24T05:16:39;24.30;98.60
66710;DHT22;53624;0.000;0.000;2023-07-24T05:19:06;24.30;99.00
66710;DHT22;53624;0.000;0.000;2023-07-24T05:21:34;24.30;99.20
66710;DHT22;53624;0.000;0.000;2023-07-24T05:24:01;24.30;99.30
66710;DHT22;53624;0.000;0.000;2023-07-24T05:26:29;24.20;99.40
66710;DHT22;53624;0.000;0.000;2023-07-24T05:28:57;24.20;99.60
66710;DHT22;53624;0.000;0.000;2023-07-24T05:31:25;24.20;99.50
66710;DHT22;53624;0.000;0.000;2023-07-24T05:33:52;24.20;99.60
66710;DHT22;53624;0.000;0.000;2023-07-24T05:36:20;24.20;99.60
66710;DHT22;53624;0.000;0.000;2023-07-24T05:38:47;24.20;99.50
66710;DHT22;53624;0.000;0.000;2023-07-24T05:41:16;24.20;99.60
66710;DHT22;53624;0.000;0.000;2023-07-24T05:43:43;24.20;99.30
66710;DHT22;53624;0.000;0.000;2023-07-24T05:46:12;24.20;99.20
66710;DHT22;53624;0.000;0.000;2023-07-24T05:48:40;24.20;99.30
66710;DHT22;53624;0.000;0.000;2023-07-24T05:51:07;24.20;99.30
66710;DHT22;53624;0.000;0.000;2023-07-24T05:53:35;24.20;99.30
66710;DHT22;53624;0.000;0.000;2023-07-24T05:56:03;24.10;99.90
66710;DHT22;53624;0.000;0.000;2023-07-24T05:58:31;23.90;99.90
66710;DHT22;53624;0.000;0.000;2023-07-24T06:00:58;23.70;99.90
66710;DHT22;53624;0.000;0.000;2023-07-24T06:03:27;23.50;99.90
66710;DHT22;53624;0.000;0.000;2023-07-24T06:05:55;23.30;99.90
66710;DHT22;53624;0.000;0.000;2023-07-24T06:08:23;23.40;99.90
66710;DHT22;53624;0.000;0.000;2023-07-24T06:10:50;23.30;99.90
66710;DHT22;53624;0.000;0.000;2023-07-24T06:13:18;23.30;99.90
66710;DHT22;53624;0.000;0.000;2023-07-24T06:15:46;23.30;99.90
66710;DHT22;53624;0.000;0.000;2023-07-24T06:18:14;23.30;99.90
66710;DHT22;53624;0.000;0.000;2023-07-24T06:20:43;23.30;99.90
66710;DHT22;53624;0.000;0.000;2023-07-24T06:23:10;23.30;99.90
66710;DHT22;53624;0.000;0.000;2023-07-24T06:25:38;23.30;99.90
66710;DHT22;53624;0.000;0.000;2023-07-24T06:28:05;23.50;99.90
66710;DHT22;53624;0.000;0.000;2023-07-24T06:30:33;23.40;99.90
66710;DHT22;53624;0.000;0.000;2023-07-24T06:33:01;23.50;99.90
66710;DHT22;53624;0.000;0.000;2023-07-24T06:35:28;23.50;99.90
66710;DHT22;53624;0.000;0.000;2023-07-24T06:37:57;23.50;99.90
66710;DHT22;53624;0.000;0.000;2023-07-24T06:40:25;23.50;99.90
66710;DHT22;53624;0.000;0.000;2023-07-24T06:42:52;23.50;99.90
66710;DHT22;53624;0.000;0.000;2023-07-24T06:45:20;23.40;99.90
66710;DHT22;53624;0.000;0.000;2023-07-24T06:47:48;23.40;99.90
66710;DHT22;53624;0.000;0.000;2023-07-24T06:50:15;23.30;99.90
66710;DHT22;53624;0.000;0.000;2023-07-24T06:52:43;22.80;99.90
66710;DHT22;53624;0.000;0.000;2023-07-24T06:55:12;22.60;99.90
66710;DHT22;53624;0.000;0.000;2023-07-24T06:57:39;22.70;99.90
66710;DHT22;53624;0.000;0.000;2023-07-24T07:00:07;22.90;99.90
66710;DHT22;53624;0.000;0.000;2023-07-24T07:02:37;23.00;99.90
66710;DHT22;53624;0.000;0.000;2023-07-24T07:05:05;23.10;99.90
66710;DHT22;53624;0.000;0.000;2023-07-24T07:07:32;23.20;99.90
66710;DHT22;53624;0.000;0.000;2023-07-24T07:10:00;23.20;99.90
66710;DHT22;53624;0.000;0.000;2023-07-24T07:12:29;23.10;99.90
66710;DHT22;53624;0.000;0.000;2023-07-24T07:14:56;23.00;99.90
66710;DHT22;53624;0.000;0.000;2023-07-24T07:17:24;22.80;99.90
66710;DHT22;53624;0.000;0.000;2023-07-24T07:19:51;22.90;99.90
66710;DHT22;53624;0.000;0.000;2023-07-24T07:22:18;22.90;99.90
66710;DHT22;53624;0.000;0.000;2023-07-24T07:24:46;23.00;99.90
66710;DHT22;53624;0.000;0.000;2023-07-24T07:27:13;22.90;99.90
66710;DHT22;53624;0.000;0.000;2023-07-24T07:29:44;23.10;99.90
66710;DHT22;53624;0.000;0.000;2023-07-24T07:32:12;23.20;99.90
66710;DHT22;53624;0.000;0.000;2023-07-24T07:34:39;23.50;99.90
66710;DHT22;53624;0.000;0.000;2023-07-24T07:37:06;23.60;99.90
66710;DHT22;53624;0.000;0.000;2023-07-24T07:39:34;23.50;99.90
66710;DHT22;53624;0.000;0.000;2023-07-24T07:42:02;23.50;99.90
66710;DHT22;53624;0.000;0.000;2023-07-24T07:44:29;23.50;99.90
66710;DHT22;53624;0.000;0.000;2023-07-24T07:46:58;23.40;99.90
66710;DHT22;53624;0.000;0.000;2023-07-24T07:49:26;23.40;99.90
66710;DHT22;53624;0.000;0.000;2023-07-24T07:51:53;23.40;99.90
66710;DHT22;53624;0.000;0.000;2023-07-24T07:54:21;23.40;99.90
66710;DHT22;53624;0.000;0.000;2023-07-24T07:56:48;23.50;99.90
66710;DHT22;53624;0.000;0.000;2023-07-24T07:59:16;23.70;99.90
66710;DHT22;53624;0.000;0.000;2023-07-24T08:01:43;23.70;99.90
66710;DHT22;53624;0.000;0.000;2023-07-24T08:04:13;23.60;99.90
66710;DHT22;53624;0.000;0.000;2023-07-24T08:06:40;23.60;99.90
66710;DHT22;53624;0.000;0.000;2023-07-24T08:09:08;23.50;99.90
66710;DHT22;53624;0.000;0.000;2023-07-24T08:11:36;23.50;99.90
66710;DHT22;53624;0.000;0.000;2023-07-24T08:14:03;23.50;99.90
66710;DHT22;53624;0.000;0.000;2023-07-24T08:16:31;23.50;99.90
66710;DHT22;53624;0.000;0.000;2023-07-24T08:18:58;23.50;99.90
66710;DHT22;53624;0.000;0.000;2023-07-24T08:21:27;23.40;99.90
66710;DHT22;53624;0.000;0.000;2023-07-24T08:23:54;23.40;99.90
66710;DHT22;53624;0.000;0.000;2023-07-24T08:26:23;23.40;99.90
66710;DHT22;53624;0.000;0.000;2023-07-24T08:28:52;23.40;99.90
66710;DHT22;53624;0.000;0.000;2023-07-24T08:31:19;23.40;99.90
66710;DHT22;53624;0.000;0.000;2023-07-24T08:33:47;23.40;99.90
66710;DHT22;53624;0.000;0.000;2023-07-24T08:36:14;23.30;99.90
66710;DHT22;53624;0.000;0.000;2023-07-24T08:38:43;23.30;99.90
66710;DHT22;53624;0.000;0.000;2023-07-24T08:41:11;23.20;99.90
66710;DHT22;53624;0.000;0.000;2023-07-24T08:43:39;23.20;99.90
66710;DHT22;53624;0.000;0.000;2023-07-24T08:46:07;23.20;99.90
66710;DHT22;53624;0.000;0.000;2023-07-24T08:48:35;23.30;99.90
66710;DHT22;53624;0.000;0.000;2023-07-24T08:51:03;23.30;99.90
66710;DHT22;53624;0.000;0.000;2023-07-24T08:53:31;23.20;99.90
66710;DHT22;53624;0.000;0.000;2023-07-24T08:56:01;23.20;99.90
66710;DHT22;53624;0.000;0.000;2023-07-24T08:58:29;23.20;99.90
66710;DHT22;53624;0.000;0.000;2023-07-24T09:00:57;23.20;99.90
66710;DHT22;53624;0.000;0.000;2023-07-24T09:03:24;23.30;99.90
66710;DHT22;53624;0.000;0.000;2023-07-24T09:05:52;23.30;99.90
66710;DHT22;53624;0.000;0.000;2023-07-24T09:08:28;23.20;99.90
66710;DHT22;53624;0.000;0.000;2023-07-24T09:10:55;23.30;99.90
66710;DHT22;53624;0.000;0.000;2023-07-24T09:13:24;23.30;99.90
66710;DHT22;53624;0.000;0.000;2023-07-24T09:15:52;23.40;99.90
66710;DHT22;53624;0.000;0.000;2023-07-24T09:18:19;23.80;99.90
66710;DHT22;53624;0.000;0.000;2023-07-24T09:20:47;24.30;99.90
66710;DHT22;53624;0.000;0.000;2023-07-24T09:23:15;24.60;99.90
66710;DHT22;53624;0.000;0.000;2023-07-24T09:25:43;24.90;99.90
66710;DHT22;53624;0.000;0.000;2023-07-24T09:28:11;25.00;99.90
66710;DHT22;53624;0.000;0.000;2023-07-24T09:30:40;25.20;99.90
66710;DHT22;53624;0.000;0.000;2023-07-24T09:33:10;25.40;99.90
66710;DHT22;53624;0.000;0.000;2023-07-24T09:35:37;25.50;99.90
66710;DHT22;53624;0.000;0.000;2023-07-24T09:38:05;25.60;99.90
66710;DHT22;53624;0.000;0.000;2023-07-24T09:40:39;25.80;99.90
66710;DHT22;53624;0.000;0.000;2023-07-24T09:43:17;26.00;99.90
66710;DHT22;53624;0.000;0.000;2023-07-24T09:45:47;26.20;99.90
66710;DHT22;53624;0.000;0.000;2023-07-24T09:48:15;26.40;99.90
66710;DHT22;53624;0.000;0.000;2023-07-24T09:50:44;26.40;99.90
66710;DHT22;53624;0.000;0.000;2023-07-24T09:53:12;26.20;99.90
66710;DHT22;53624;0.000;0.000;2023-07-24T09:55:43;26.40;99.90
66710;DHT22;53624;0.000;0.000;2023-07-24T09:58:13;26.60;99.90
66710;DHT22;53624;0.000;0.000;2023-07-24T10:00:41;26.10;99.90
66710;DHT22;53624;0.000;0.000;2023-07-24T10:03:10;26.20;99.90
66710;DHT22;53624;0.000;0.000;2023-07-24T10:05:38;26.30;99.90
66710;DHT22;53624;0.000;0.000;2023-07-24T10:08:06;26.10;99.90
66710;DHT22;53624;0.000;0.000;2023-07-24T10:10:34;26.00;99.90
66710;DHT22;53624;0.000;0.000;2023-07-24T10:13:01;26.00;99.90
66710;DHT22;53624;0.000;0.000;2023-07-24T10:15:29;26.20;99.90
66710;DHT22;53624;0.000;0.000;2023-07-24T10:18:01;26.40;99.90
66710;DHT22;53624;0.000;0.000;2023-07-24T10:20:34;26.40;99.90
66710;DHT22;53624;0.000;0.000;2023-07-24T10:23:02;26.30;99.90
66710;DHT22;53624;0.000;0.000;2023-07-24T10:25:30;26.30;99.90
66710;DHT22;53624;0.000;0.000;2023-07-24T10:28:01;26.30;99.90
66710;DHT22;53624;0.000;0.000;2023-07-24T10:30:31;26.40;99.90
66710;DHT22;53624;0.000;0.000;2023-07-24T10:33:05;26.20;99.90
66710;DHT22;53624;0.000;0.000;2023-07-24T10:35:38;26.40;99.90
66710;DHT22;53624;0.000;0.000;2023-07-24T10:38:05;26.60;99.90
66710;DHT22;53624;0.000;0.000;2023-07-24T10:40:33;26.60;99.90
66710;DHT22;53624;0.000;0.000;2023-07-24T10:43:03;26.50;99.90
66710;DHT22;53624;0.000;0.000;2023-07-24T10:45:38;26.40;99.90
66710;DHT22;53624;0.000;0.000;2023-07-24T10:48:06;26.30;99.90
66710;DHT22;53624;0.000;0.000;2023-07-24T10:50:37;26.30;99.90
66710;DHT22;53624;0.000;0.000;2023-07-24T10:53:05;26.30;99.90
66710;DHT22;53624;0.000;0.000;2023-07-24T10:55:32;26.30;99.90
66710;DHT22;53624;0.000;0.000;2023-07-24T10:58:00;26.40;99.90
66710;DHT22;53624;0.000;0.000;2023-07-24T11:00:27;26.30;99.90
66710;DHT22;53624;0.000;0.000;2023-07-24T11:02:55;26.40;99.90
66710;DHT22;53624;0.000;0.000;2023-07-24T11:05:23;26.30;99.90
66710;DHT22;53624;0.000;0.000;2023-07-24T11:07:52;26.20;99.90
66710;DHT22;53624;0.000;0.000;2023-07-24T11:10:20;26.20;99.90
66710;DHT22;53624;0.000;0.000;2023-07-24T11:12:48;26.30;99.90
66710;DHT22;53624;0.000;0.000;2023-07-24T11:15:16;26.70;99.90
66710;DHT22;53624;0.000;0.000;2023-07-24T11:17:50;27.00;99.90
66710;DHT22;53624;0.000;0.000;2023-07-24T11:20:18;26.90;99.90
66710;DHT22;53624;0.000;0.000;2023-07-24T11:22:45;26.70;99.90
66710;DHT22;53624;0.000;0.000;2023-07-24T11:25:14;26.70;99.90
66710;DHT22;53624;0.000;0.000;2023-07-24T11:27:42;26.90;99.90
66710;DHT22;53624;0.000;0.000;2023-07-24T11:30:11;27.10;99.90
66710;DHT22;53624;0.000;0.000;2023-07-24T11:32:39;27.30;99.90
66710;DHT22;53624;0.000;0.000;2023-07-24T11:35:07;27.40;99.90
66710;DHT22;53624;0.000;0.000;2023-07-24T11:37:37;27.50;99.90
66710;DHT22;53624;0.000;0.000;2023-07-24T11:40:04;27.60;99.90
66710;DHT22;53624;0.000;0.000;2023-07-24T11:42:38;27.70;99.90
66710;DHT22;53624;0.000;0.000;2023-07-24T11:45:13;27.80;99.90
66710;DHT22;53624;0.000;0.000;2023-07-24T11:47:45;27.90;99.90
66710;DHT22;53624;0.000;0.000;2023-07-24T11:50:13;27.90;99.90
66710;DHT22;53624;0.000;0.000;2023-07-24T11:52:42;28.00;99.90
66710;DHT22;53624;0.000;0.000;2023-07-24T11:55:10;28.00;99.90
66710;DHT22;53624;0.000;0.000;2023-07-24T11:57:40;28.20;99.90
66710;DHT22;53624;0.000;0.000;2023-07-24T12:00:17;28.40;99.90
66710;DHT22;53624;0.000;0.000;2023-07-24T12:02:45;28.30;99.90
66710;DHT22;53624;0.000;0.000;2023-07-24T12:05:12;28.30;99.90
66710;DHT22;53624;0.000;0.000;2023-07-24T12:07:42;28.20;99.90
66710;DHT22;53624;0.000;0.000;2023-07-24T12:10:09;28.40;99.90
66710;DHT22;53624;0.000;0.000;2023-07-24T12:12:38;28.40;99.90
66710;DHT22;53624;0.000;0.000;2023-07-24T12:15:08;28.50;99.90
66710;DHT22;53624;0.000;0.000;2023-07-24T12:17:35;28.70;99.90
66710;DHT22;53624;0.000;0.000;2023-07-24T12:20:03;28.80;99.90
66710;DHT22;53624;0.000;0.000;2023-07-24T12:22:32;28.70;99.30
66710;DHT22;53624;0.000;0.000;2023-07-24T12:24:59;28.70;99.80
66710;DHT22;53624;0.000;0.000;2023-07-24T12:27:27;28.90;99.90
66710;DHT22;53624;0.000;0.000;2023-07-24T12:29:54;28.90;99.90
66710;DHT22;53624;0.000;0.000;2023-07-24T12:32:23;28.90;99.20
66710;DHT22;53624;0.000;0.000;2023-07-24T12:34:52;28.90;97.70
66710;DHT22;53624;0.000;0.000;2023-07-24T12:37:21;29.10;98.10
66710;DHT22;53624;0.000;0.000;2023-07-24T12:39:49;29.20;97.80
66710;DHT22;53624;0.000;0.000;2023-07-24T12:42:17;29.30;96.70
66710;DHT22;53624;0.000;0.000;2023-07-24T12:44:44;29.40;96.80
66710;DHT22;53624;0.000;0.000;2023-07-24T12:47:12;29.40;95.50
66710;DHT22;53624;0.000;0.000;2023-07-24T12:49:41;29.30;97.20
66710;DHT22;53624;0.000;0.000;2023-07-24T12:52:08;29.30;96.70
66710;DHT22;53624;0.000;0.000;2023-07-24T12:54:36;29.30;99.80
66710;DHT22;53624;0.000;0.000;2023-07-24T12:57:04;29.30;96.50
66710;DHT22;53624;0.000;0.000;2023-07-24T12:59:31;29.20;97.00
66710;DHT22;53624;0.000;0.000;2023-07-24T13:01:59;29.20;96.20
66710;DHT22;53624;0.000;0.000;2023-07-24T13:04:27;29.20;96.10
66710;DHT22;53624;0.000;0.000;2023-07-24T13:06:56;29.40;97.30
66710;DHT22;53624;0.000;0.000;2023-07-24T13:09:25;29.40;95.80
66710;DHT22;53624;0.000;0.000;2023-07-24T13:11:53;29.30;94.20
66710;DHT22;53624;0.000;0.000;2023-07-24T13:14:20;29.40;92.90
66710;DHT22;53624;0.000;0.000;2023-07-24T13:16:49;29.40;95.80
66710;DHT22;53624;0.000;0.000;2023-07-24T13:19:17;29.40;92.20
66710;DHT22;53624;0.000;0.000;2023-07-24T13:21:44;29.60;94.30
66710;DHT22;53624;0.000;0.000;2023-07-24T13:24:15;29.70;93.30
66710;DHT22;53624;0.000;0.000;2023-07-24T13:26:43;29.90;93.40
66710;DHT22;53624;0.000;0.000;2023-07-24T13:29:10;29.90;91.50
66710;DHT22;53624;0.000;0.000;2023-07-24T13:31:38;29.90;93.10
66710;DHT22;53624;0.000;0.000;2023-07-24T13:34:06;29.90;94.60
66710;DHT22;53624;0.000;0.000;2023-07-24T13:36:34;29.90;92.60
66710;DHT22;53624;0.000;0.000;2023-07-24T13:39:02;30.00;91.80
66710;DHT22;53624;0.000;0.000;2023-07-24T13:41:31;30.00;91.00
66710;DHT22;53624;0.000;0.000;2023-07-24T13:43:58;29.90;92.30
66710;DHT22;53624;0.000;0.000;2023-07-24T13:46:26;30.00;92.20
66710;DHT22;53624;0.000;0.000;2023-07-24T13:48:53;30.10;93.80
66710;DHT22;53624;0.000;0.000;2023-07-24T13:51:21;30.10;94.10
66710;DHT22;53624;0.000;0.000;2023-07-24T13:53:48;30.10;91.40
66710;DHT22;53624;0.000;0.000;2023-07-24T13:56:17;30.10;92.50
66710;DHT22;53624;0.000;0.000;2023-07-24T13:58:47;30.10;92.30
66710;DHT22;53624;0.000;0.000;2023-07-24T14:01:14;30.10;92.20
66710;DHT22;53624;0.000;0.000;2023-07-24T14:03:42;30.10;91.30
66710;DHT22;53624;0.000;0.000;2023-07-24T14:06:09;30.30;90.10
66710;DHT22;53624;0.000;0.000;2023-07-24T14:08:36;30.40;91.40
66710;DHT22;53624;0.000;0.000;2023-07-24T14:11:04;30.50;91.80
66710;DHT22;53624;0.000;0.000;2023-07-24T14:13:32;30.40;90.30
66710;DHT22;53624;0.000;0.000;2023-07-24T14:16:00;30.30;91.30
66710;DHT22;53624;0.000;0.000;2023-07-24T14:18:28;30.20;90.50
66710;DHT22;53624;0.000;0.000;2023-07-24T14:20:55;30.40;90.70
66710;DHT22;53624;0.000;0.000;2023-07-24T14:23:25;30.50;90.70
66710;DHT22;53624;0.000;0.000;2023-07-24T14:25:52;30.40;89.60
66710;DHT22;53624;0.000;0.000;2023-07-24T14:28:20;30.30;90.40
66710;DHT22;53624;0.000;0.000;2023-07-24T14:30:47;30.20;85.80
66710;DHT22;53624;0.000;0.000;2023-07-24T14:33:16;30.10;88.70
66710;DHT22;53624;0.000;0.000;2023-07-24T14:35:44;30.10;88.40
66710;DHT22;53624;0.000;0.000;2023-07-24T14:38:11;29.80;89.60
66710;DHT22;53624;0.000;0.000;2023-07-24T14:40:39;29.50;91.50
66710;DHT22;53624;0.000;0.000;2023-07-24T14:43:07;29.20;92.60
66710;DHT22;53624;0.000;0.000;2023-07-24T14:45:34;28.90;92.40
66710;DHT22;53624;0.000;0.000;2023-07-24T14:48:02;28.70;92.70
66710;DHT22;53624;0.000;0.000;2023-07-24T14:50:31;28.70;93.30
66710;DHT22;53624;0.000;0.000;2023-07-24T14:52:59;28.70;94.10
66710;DHT22;53624;0.000;0.000;2023-07-24T14:55:27;28.60;94.40
66710;DHT22;53624;0.000;0.000;2023-07-24T14:57:54;28.50;96.30
66710;DHT22;53624;0.000;0.000;2023-07-24T15:00:21;28.40;96.10
66710;DHT22;53624;0.000;0.000;2023-07-24T15:02:49;28.10;96.40
66710;DHT22;53624;0.000;0.000;2023-07-24T15:05:16;28.10;97.40
66710;DHT22;53624;0.000;0.000;2023-07-24T15:07:45;28.00;97.40
66710;DHT22;53624;0.000;0.000;2023-07-24T15:10:13;28.00;97.80
66710;DHT22;53624;0.000;0.000;2023-07-24T15:12:40;27.80;97.50
66710;DHT22;53624;0.000;0.000;2023-07-24T15:15:08;27.70;98.30
66710;DHT22;53624;0.000;0.000;2023-07-24T15:17:36;27.60;98.70
66710;DHT22;53624;0.000;0.000;2023-07-24T15:20:04;27.60;99.00
66710;DHT22;53624;0.000;0.000;2023-07-24T15:22:32;27.50;99.60
66710;DHT22;53624;0.000;0.000;2023-07-24T15:25:01;27.30;99.90
66710;DHT22;53624;0.000;0.000;2023-07-24T15:27:30;27.20;99.90
66710;DHT22;53624;0.000;0.000;2023-07-24T15:29:58;27.10;99.90
66710;DHT22;53624;0.000;0.000;2023-07-24T15:32:25;27.20;99.90
66710;DHT22;53624;0.000;0.000;2023-07-24T15:34:53;27.40;99.90
66710;DHT22;53624;0.000;0.000;2023-07-24T15:37:21;27.50;99.90
66710;DHT22;53624;0.000;0.000;2023-07-24T15:39:49;27.50;99.90
66710;DHT22;53624;0.000;0.000;2023-07-24T15:42:18;27.40;99.90
66710;DHT22;53624;0.000;0.000;2023-07-24T15:44:48;27.40;99.90
66710;DHT22;53624;0.000;0.000;2023-07-24T16:01:10;27.70;99.90
66710;DHT22;53624;0.000;0.000;2023-07-24T16:03:37;27.60;99.90